sensor_id;sensor_type;location;lat;lon;timestamp;P1;durP1;ratioP1;P2;durP2;ratioP2
26620;SDS011;14253;44.840;10.444;2023-10-19T00:01:15;46.20;;;29.67;;
26620;SDS011;14253;44.840;10.444;2023-10-19T00:03:43;48.80;;;29.95;;
26620;SDS011;14253;44.840;10.444;2023-10-19T00:06:15;51.25;;;29.92;;
26620;SDS011;14253;44.840;10.444;2023-10-19T00:08:43;44.53;;;28.27;;
26620;SDS011;14253;44.840;10.444;2023-10-19T00:11:09;44.47;;;28.85;;
26620;SDS011;14253;44.840;10.444;2023-10-19T00:13:46;43.75;;;28.52;;
26620;SDS011;14253;44.840;10.444;2023-10-19T00:16:16;42.88;;;28.17;;
26620;SDS011;14253;44.840;10.444;2023-10-19T00:18:46;43.70;;;27.83;;
26620;SDS011;14253;44.840;10.444;2023-10-19T00:21:13;51.15;;;29.55;;
26620;SDS011;14253;44.840;10.444;2023-10-19T00:23:49;43.22;;;29.48;;
26620;SDS011;14253;44.840;10.444;2023-10-19T00:26:26;49.67;;;30.30;;
26620;SDS011;14253;44.840;10.444;2023-10-19T00:28:58;44.88;;;28.05;;
26620;SDS011;14253;44.840;10.444;2023-10-19T00:31:28;50.22;;;29.70;;
26620;SDS011;14253;44.840;10.444;2023-10-19T00:33:56;45.72;;;30.52;;
26620;SDS011;14253;44.840;10.444;2023-10-19T00:36:23;47.53;;;28.95;;
26620;SDS011;14253;44.840;10.444;2023-10-19T00:38:50;50.28;;;31.70;;
26620;SDS011;14253;44.840;10.444;2023-10-19T00:41:23;52.20;;;30.15;;
26620;SDS011;14253;44.840;10.444;2023-10-19T00:43:59;44.58;;;28.75;;
26620;SDS011;14253;44.840;10.444;2023-10-19T00:46:32;44.15;;;29.80;;
26620;SDS011;14253;44.840;10.444;2023-10-19T00:49:04;46.75;;;29.08;;
26620;SDS011;14253;44.840;10.444;2023-10-19T00:56:45;46.75;;;29.73;;
26620;SDS011;14253;44.840;10.444;2023-10-19T00:59:19;49.72;;;29.55;;
26620;SDS011;14253;44.840;10.444;2023-10-19T01:01:56;44.40;;;28.92;;
26620;SDS011;14253;44.840;10.444;2023-10-19T01:04:46;50.47;;;31.77;;
26620;SDS011;14253;44.840;10.444;2023-10-19T01:07:33;51.15;;;31.02;;
26620;SDS011;14253;44.840;10.444;2023-10-19T01:10:03;46.75;;;29.08;;
26620;SDS011;14253;44.840;10.444;2023-10-19T01:12:31;49.47;;;31.30;;
26620;SDS011;14253;44.840;10.444;2023-10-19T01:17:46;51.67;;;31.60;;
26620;SDS011;14253;44.840;10.444;2023-10-19T01:20:23;50.92;;;30.45;;
26620;SDS011;14253;44.840;10.444;2023-10-19T01:23:08;47.15;;;29.92;;
26620;SDS011;14253;44.840;10.444;2023-10-19T01:25:50;52.42;;;32.40;;
26620;SDS011;14253;44.840;10.444;2023-10-19T01:28:39;56.67;;;34.33;;
26620;SDS011;14253;44.840;10.444;2023-10-19T01:31:08;49.83;;;33.90;;
26620;SDS011;14253;44.840;10.444;2023-10-19T01:33:48;54.60;;;32.75;;
26620;SDS011;14253;44.840;10.444;2023-10-19T01:36:15;59.78;;;35.25;;
26620;SDS011;14253;44.840;10.444;2023-10-19T01:38:47;57.20;;;34.38;;
26620;SDS011;14253;44.840;10.444;2023-10-19T01:41:14;52.88;;;33.67;;
26620;SDS011;14253;44.840;10.444;2023-10-19T01:43:41;62.35;;;37.53;;
26620;SDS011;14253;44.840;10.444;2023-10-19T01:46:09;52.88;;;34.65;;
26620;SDS011;14253;44.840;10.444;2023-10-19T01:48:39;54.15;;;33.45;;
26620;SDS011;14253;44.840;10.444;2023-10-19T01:51:06;62.00;;;35.58;;
26620;SDS011;14253;44.840;10.444;2023-10-19T01:53:37;67.32;;;38.95;;
26620;SDS011;14253;44.840;10.444;2023-10-19T01:56:05;61.28;;;37.38;;
26620;SDS011;14253;44.840;10.444;2023-10-19T01:58:38;56.92;;;35.95;;
26620;SDS011;14253;44.840;10.444;2023-10-19T02:01:05;57.67;;;34.50;;
26620;SDS011;14253;44.840;10.444;2023-10-19T02:03:35;60.75;;;35.92;;
26620;SDS011;14253;44.840;10.444;2023-10-19T02:06:10;64.20;;;37.88;;
26620;SDS011;14253;44.840;10.444;2023-10-19T02:12:20;48.00;;;32.58;;
26620;SDS011;14253;44.840;10.444;2023-10-19T02:15:24;55.50;;;32.80;;
26620;SDS011;14253;44.840;10.444;2023-10-19T02:18:29;56.90;;;33.42;;
26620;SDS011;14253;44.840;10.444;2023-10-19T02:21:53;55.83;;;33.60;;
26620;SDS011;14253;44.840;10.444;2023-10-19T02:25:00;51.10;;;32.22;;
26620;SDS011;14253;44.840;10.444;2023-10-19T02:28:05;51.58;;;33.13;;
26620;SDS011;14253;44.840;10.444;2023-10-19T02:31:15;52.22;;;34.28;;
26620;SDS011;14253;44.840;10.444;2023-10-19T02:34:19;54.80;;;33.90;;
26620;SDS011;14253;44.840;10.444;2023-10-19T02:37:21;54.03;;;32.45;;
26620;SDS011;14253;44.840;10.444;2023-10-19T02:40:30;55.17;;;34.65;;
26620;SDS011;14253;44.840;10.444;2023-10-19T02:43:34;53.75;;;33.33;;
26620;SDS011;14253;44.840;10.444;2023-10-19T02:46:59;55.78;;;34.50;;
26620;SDS011;14253;44.840;10.444;2023-10-19T02:50:04;50.05;;;31.92;;
26620;SDS011;14253;44.840;10.444;2023-10-19T02:53:12;52.80;;;33.47;;
26620;SDS011;14253;44.840;10.444;2023-10-19T02:56:10;50.70;;;32.05;;
26620;SDS011;14253;44.840;10.444;2023-10-19T02:58:51;56.20;;;33.92;;
26620;SDS011;14253;44.840;10.444;2023-10-19T03:01:23;50.83;;;32.53;;
26620;SDS011;14253;44.840;10.444;2023-10-19T03:03:53;55.72;;;35.70;;
26620;SDS011;14253;44.840;10.444;2023-10-19T03:06:30;53.85;;;35.70;;
26620;SDS011;14253;44.840;10.444;2023-10-19T03:09:00;57.22;;;36.83;;
26620;SDS011;14253;44.840;10.444;2023-10-19T03:11:30;54.35;;;35.10;;
26620;SDS011;14253;44.840;10.444;2023-10-19T03:14:00;58.60;;;36.47;;
26620;SDS011;14253;44.840;10.444;2023-10-19T03:16:29;54.92;;;34.92;;
26620;SDS011;14253;44.840;10.444;2023-10-19T03:18:56;58.58;;;36.70;;
26620;SDS011;14253;44.840;10.444;2023-10-19T03:21:22;53.88;;;34.78;;
26620;SDS011;14253;44.840;10.444;2023-10-19T03:23:57;56.38;;;36.13;;
26620;SDS011;14253;44.840;10.444;2023-10-19T03:26:27;62.70;;;38.90;;
26620;SDS011;14253;44.840;10.444;2023-10-19T03:28:58;61.72;;;37.92;;
26620;SDS011;14253;44.840;10.444;2023-10-19T03:31:32;62.53;;;40.35;;
26620;SDS011;14253;44.840;10.444;2023-10-19T03:34:02;64.00;;;39.28;;
26620;SDS011;14253;44.840;10.444;2023-10-19T03:36:31;62.25;;;39.60;;
26620;SDS011;14253;44.840;10.444;2023-10-19T03:38:57;55.75;;;36.40;;
26620;SDS011;14253;44.840;10.444;2023-10-19T03:41:37;64.45;;;39.55;;
26620;SDS011;14253;44.840;10.444;2023-10-19T03:44:08;68.22;;;40.80;;
26620;SDS011;14253;44.840;10.444;2023-10-19T03:46:50;66.50;;;40.55;;
26620;SDS011;14253;44.840;10.444;2023-10-19T03:49:23;69.20;;;40.25;;
26620;SDS011;14253;44.840;10.444;2023-10-19T03:52:05;71.53;;;40.67;;
26620;SDS011;14253;44.840;10.444;2023-10-19T03:54:34;58.42;;;36.97;;
26620;SDS011;14253;44.840;10.444;2023-10-19T03:57:08;62.28;;;38.38;;
26620;SDS011;14253;44.840;10.444;2023-10-19T03:59:38;65.93;;;40.10;;
26620;SDS011;14253;44.840;10.444;2023-10-19T04:02:05;63.88;;;41.03;;
26620;SDS011;14253;44.840;10.444;2023-10-19T04:04:42;67.10;;;41.15;;
26620;SDS011;14253;44.840;10.444;2023-10-19T04:07:12;67.97;;;41.47;;
26620;SDS011;14253;44.840;10.444;2023-10-19T04:12:34;69.45;;;40.67;;
26620;SDS011;14253;44.840;10.444;2023-10-19T04:15:03;70.35;;;40.60;;
26620;SDS011;14253;44.840;10.444;2023-10-19T04:17:46;71.67;;;41.40;;
26620;SDS011;14253;44.840;10.444;2023-10-19T04:20:17;59.08;;;38.03;;
26620;SDS011;14253;44.840;10.444;2023-10-19T04:22:44;67.40;;;42.38;;
26620;SDS011;14253;44.840;10.444;2023-10-19T04:25:14;66.30;;;40.25;;
26620;SDS011;14253;44.840;10.444;2023-10-19T04:27:44;66.78;;;41.17;;
26620;SDS011;14253;44.840;10.444;2023-10-19T04:30:14;68.90;;;41.33;;
26620;SDS011;14253;44.840;10.444;2023-10-19T04:32:48;59.05;;;39.83;;
26620;SDS011;14253;44.840;10.444;2023-10-19T04:35:18;63.63;;;38.55;;
26620;SDS011;14253;44.840;10.444;2023-10-19T04:37:51;66.75;;;41.72;;
26620;SDS011;14253;44.840;10.444;2023-10-19T04:40:18;72.97;;;43.10;;
26620;SDS011;14253;44.840;10.444;2023-10-19T04:42:45;63.38;;;40.80;;
26620;SDS011;14253;44.840;10.444;2023-10-19T04:45:12;63.55;;;40.63;;
26620;SDS011;14253;44.840;10.444;2023-10-19T04:47:39;68.72;;;42.00;;
26620;SDS011;14253;44.840;10.444;2023-10-19T04:50:05;70.50;;;40.65;;
26620;SDS011;14253;44.840;10.444;2023-10-19T04:52:32;65.38;;;38.85;;
26620;SDS011;14253;44.840;10.444;2023-10-19T04:54:59;66.95;;;38.47;;
26620;SDS011;14253;44.840;10.444;2023-10-19T04:57:26;65.82;;;41.25;;
26620;SDS011;14253;44.840;10.444;2023-10-19T04:59:52;63.92;;;40.47;;
26620;SDS011;14253;44.840;10.444;2023-10-19T05:02:18;64.95;;;40.72;;
26620;SDS011;14253;44.840;10.444;2023-10-19T05:04:44;63.90;;;41.83;;
26620;SDS011;14253;44.840;10.444;2023-10-19T05:07:11;64.95;;;41.78;;
26620;SDS011;14253;44.840;10.444;2023-10-19T05:09:40;67.20;;;40.40;;
26620;SDS011;14253;44.840;10.444;2023-10-19T05:12:06;64.40;;;39.15;;
26620;SDS011;14253;44.840;10.444;2023-10-19T05:14:41;64.53;;;39.30;;
26620;SDS011;14253;44.840;10.444;2023-10-19T05:17:08;67.20;;;39.55;;
26620;SDS011;14253;44.840;10.444;2023-10-19T05:19:35;67.05;;;41.38;;
26620;SDS011;14253;44.840;10.444;2023-10-19T05:22:02;60.38;;;39.20;;
26620;SDS011;14253;44.840;10.444;2023-10-19T05:24:29;62.53;;;38.95;;
26620;SDS011;14253;44.840;10.444;2023-10-19T05:26:56;65.28;;;40.08;;
26620;SDS011;14253;44.840;10.444;2023-10-19T05:29:24;61.60;;;39.55;;
26620;SDS011;14253;44.840;10.444;2023-10-19T05:31:50;58.85;;;39.00;;
26620;SDS011;14253;44.840;10.444;2023-10-19T05:34:23;74.53;;;47.78;;
26620;SDS011;14253;44.840;10.444;2023-10-19T05:36:52;70.32;;;43.05;;
26620;SDS011;14253;44.840;10.444;2023-10-19T05:39:19;71.03;;;42.75;;
26620;SDS011;14253;44.840;10.444;2023-10-19T05:41:46;63.97;;;40.42;;
26620;SDS011;14253;44.840;10.444;2023-10-19T05:44:12;59.67;;;38.35;;
26620;SDS011;14253;44.840;10.444;2023-10-19T05:46:38;64.38;;;39.88;;
26620;SDS011;14253;44.840;10.444;2023-10-19T05:49:06;61.83;;;39.15;;
26620;SDS011;14253;44.840;10.444;2023-10-19T05:51:33;58.58;;;37.65;;
26620;SDS011;14253;44.840;10.444;2023-10-19T05:53:59;62.80;;;41.30;;
26620;SDS011;14253;44.840;10.444;2023-10-19T05:56:28;61.67;;;41.08;;
26620;SDS011;14253;44.840;10.444;2023-10-19T05:58:59;66.88;;;42.88;;
26620;SDS011;14253;44.840;10.444;2023-10-19T06:01:26;63.72;;;39.50;;
26620;SDS011;14253;44.840;10.444;2023-10-19T06:03:52;67.28;;;42.97;;
26620;SDS011;14253;44.840;10.444;2023-10-19T06:06:21;65.60;;;40.30;;
26620;SDS011;14253;44.840;10.444;2023-10-19T06:08:47;64.70;;;39.70;;
26620;SDS011;14253;44.840;10.444;2023-10-19T06:11:14;65.95;;;40.33;;
26620;SDS011;14253;44.840;10.444;2023-10-19T06:13:40;61.28;;;40.72;;
26620;SDS011;14253;44.840;10.444;2023-10-19T06:16:06;53.70;;;36.33;;
26620;SDS011;14253;44.840;10.444;2023-10-19T06:18:32;59.70;;;39.00;;
26620;SDS011;14253;44.840;10.444;2023-10-19T06:20:58;67.18;;;41.53;;
26620;SDS011;14253;44.840;10.444;2023-10-19T06:23:24;62.00;;;40.80;;
26620;SDS011;14253;44.840;10.444;2023-10-19T06:25:50;68.72;;;40.45;;
26620;SDS011;14253;44.840;10.444;2023-10-19T06:28:17;68.32;;;41.15;;
26620;SDS011;14253;44.840;10.444;2023-10-19T06:30:43;62.55;;;39.63;;
26620;SDS011;14253;44.840;10.444;2023-10-19T06:33:09;58.72;;;37.13;;
26620;SDS011;14253;44.840;10.444;2023-10-19T06:35:35;66.03;;;41.58;;
26620;SDS011;14253;44.840;10.444;2023-10-19T06:38:02;66.72;;;41.30;;
26620;SDS011;14253;44.840;10.444;2023-10-19T06:40:29;62.53;;;39.47;;
26620;SDS011;14253;44.840;10.444;2023-10-19T06:42:58;66.63;;;40.88;;
26620;SDS011;14253;44.840;10.444;2023-10-19T06:45:27;61.65;;;38.22;;
26620;SDS011;14253;44.840;10.444;2023-10-19T06:47:55;65.45;;;40.65;;
26620;SDS011;14253;44.840;10.444;2023-10-19T06:50:22;65.10;;;40.50;;
26620;SDS011;14253;44.840;10.444;2023-10-19T06:52:49;62.58;;;37.75;;
26620;SDS011;14253;44.840;10.444;2023-10-19T06:55:16;62.10;;;39.20;;
26620;SDS011;14253;44.840;10.444;2023-10-19T06:57:46;63.95;;;40.65;;
26620;SDS011;14253;44.840;10.444;2023-10-19T07:00:16;64.03;;;39.42;;
26620;SDS011;14253;44.840;10.444;2023-10-19T07:03:06;62.30;;;37.58;;
26620;SDS011;14253;44.840;10.444;2023-10-19T07:05:32;69.70;;;39.42;;
26620;SDS011;14253;44.840;10.444;2023-10-19T07:07:59;69.82;;;39.88;;
26620;SDS011;14253;44.840;10.444;2023-10-19T07:10:27;66.05;;;40.95;;
26620;SDS011;14253;44.840;10.444;2023-10-19T07:12:54;66.68;;;41.30;;
26620;SDS011;14253;44.840;10.444;2023-10-19T07:15:21;61.63;;;39.90;;
26620;SDS011;14253;44.840;10.444;2023-10-19T07:17:49;66.07;;;40.35;;
26620;SDS011;14253;44.840;10.444;2023-10-19T07:20:25;63.80;;;39.40;;
26620;SDS011;14253;44.840;10.444;2023-10-19T07:22:57;66.05;;;40.75;;
26620;SDS011;14253;44.840;10.444;2023-10-19T07:25:42;66.28;;;40.60;;
26620;SDS011;14253;44.840;10.444;2023-10-19T07:28:09;62.15;;;40.25;;
26620;SDS011;14253;44.840;10.444;2023-10-19T07:30:38;58.60;;;38.22;;
26620;SDS011;14253;44.840;10.444;2023-10-19T07:33:05;59.80;;;38.15;;
26620;SDS011;14253;44.840;10.444;2023-10-19T07:35:34;57.78;;;38.53;;
26620;SDS011;14253;44.840;10.444;2023-10-19T07:38:03;62.47;;;40.03;;
26620;SDS011;14253;44.840;10.444;2023-10-19T07:40:29;63.15;;;40.28;;
26620;SDS011;14253;44.840;10.444;2023-10-19T07:42:56;61.28;;;38.35;;
26620;SDS011;14253;44.840;10.444;2023-10-19T07:45:22;60.63;;;39.05;;
26620;SDS011;14253;44.840;10.444;2023-10-19T07:47:48;58.30;;;36.95;;
26620;SDS011;14253;44.840;10.444;2023-10-19T07:50:14;62.35;;;39.58;;
26620;SDS011;14253;44.840;10.444;2023-10-19T07:52:43;63.63;;;38.00;;
26620;SDS011;14253;44.840;10.444;2023-10-19T07:55:12;68.90;;;39.42;;
26620;SDS011;14253;44.840;10.444;2023-10-19T07:57:39;66.00;;;39.90;;
26620;SDS011;14253;44.840;10.444;2023-10-19T08:00:08;73.63;;;40.33;;
26620;SDS011;14253;44.840;10.444;2023-10-19T08:02:35;62.92;;;36.45;;
26620;SDS011;14253;44.840;10.444;2023-10-19T08:05:07;60.10;;;35.53;;
26620;SDS011;14253;44.840;10.444;2023-10-19T08:07:33;56.95;;;35.33;;
26620;SDS011;14253;44.840;10.444;2023-10-19T08:10:00;64.50;;;35.72;;
26620;SDS011;14253;44.840;10.444;2023-10-19T08:12:27;56.67;;;34.75;;
26620;SDS011;14253;44.840;10.444;2023-10-19T08:14:53;56.05;;;35.17;;
26620;SDS011;14253;44.840;10.444;2023-10-19T08:17:21;54.65;;;36.85;;
26620;SDS011;14253;44.840;10.444;2023-10-19T08:19:47;55.85;;;36.08;;
26620;SDS011;14253;44.840;10.444;2023-10-19T08:22:13;59.13;;;36.10;;
26620;SDS011;14253;44.840;10.444;2023-10-19T08:24:40;56.53;;;34.10;;
26620;SDS011;14253;44.840;10.444;2023-10-19T08:27:08;48.55;;;32.70;;
26620;SDS011;14253;44.840;10.444;2023-10-19T08:29:39;50.70;;;32.97;;
26620;SDS011;14253;44.840;10.444;2023-10-19T08:32:05;47.38;;;30.75;;
26620;SDS011;14253;44.840;10.444;2023-10-19T08:34:35;47.55;;;31.27;;
26620;SDS011;14253;44.840;10.444;2023-10-19T08:37:02;50.00;;;33.20;;
26620;SDS011;14253;44.840;10.444;2023-10-19T08:39:29;53.83;;;34.20;;
26620;SDS011;14253;44.840;10.444;2023-10-19T08:42:02;54.33;;;34.15;;
26620;SDS011;14253;44.840;10.444;2023-10-19T08:44:29;54.05;;;33.95;;
26620;SDS011;14253;44.840;10.444;2023-10-19T08:46:56;48.63;;;32.65;;
26620;SDS011;14253;44.840;10.444;2023-10-19T08:49:24;50.97;;;34.03;;
26620;SDS011;14253;44.840;10.444;2023-10-19T08:51:54;48.80;;;31.95;;
26620;SDS011;14253;44.840;10.444;2023-10-19T08:54:21;54.17;;;36.72;;
26620;SDS011;14253;44.840;10.444;2023-10-19T08:56:47;48.83;;;33.53;;
26620;SDS011;14253;44.840;10.444;2023-10-19T08:59:14;44.78;;;32.05;;
26620;SDS011;14253;44.840;10.444;2023-10-19T09:01:42;48.75;;;31.65;;
26620;SDS011;14253;44.840;10.444;2023-10-19T09:04:12;46.85;;;32.97;;
26620;SDS011;14253;44.840;10.444;2023-10-19T09:06:41;53.47;;;33.63;;
26620;SDS011;14253;44.840;10.444;2023-10-19T09:09:08;48.63;;;32.33;;
26620;SDS011;14253;44.840;10.444;2023-10-19T09:11:45;50.58;;;33.15;;
26620;SDS011;14253;44.840;10.444;2023-10-19T09:14:12;51.05;;;34.50;;
26620;SDS011;14253;44.840;10.444;2023-10-19T09:17:01;53.33;;;34.00;;
26620;SDS011;14253;44.840;10.444;2023-10-19T09:22:09;45.03;;;31.27;;
26620;SDS011;14253;44.840;10.444;2023-10-19T09:24:46;48.55;;;31.85;;
26620;SDS011;14253;44.840;10.444;2023-10-19T09:27:16;47.60;;;32.58;;
26620;SDS011;14253;44.840;10.444;2023-10-19T09:29:43;44.30;;;29.63;;
26620;SDS011;14253;44.840;10.444;2023-10-19T09:32:09;44.63;;;31.48;;
26620;SDS011;14253;44.840;10.444;2023-10-19T09:34:36;48.30;;;30.42;;
26620;SDS011;14253;44.840;10.444;2023-10-19T09:37:06;45.50;;;31.63;;
26620;SDS011;14253;44.840;10.444;2023-10-19T09:39:33;43.63;;;31.05;;
26620;SDS011;14253;44.840;10.444;2023-10-19T09:42:09;41.08;;;27.77;;
26620;SDS011;14253;44.840;10.444;2023-10-19T09:44:52;41.92;;;28.00;;
26620;SDS011;14253;44.840;10.444;2023-10-19T09:47:29;41.95;;;27.95;;
26620;SDS011;14253;44.840;10.444;2023-10-19T09:49:57;41.33;;;27.17;;
26620;SDS011;14253;44.840;10.444;2023-10-19T09:52:23;40.65;;;28.77;;
26620;SDS011;14253;44.840;10.444;2023-10-19T09:57:28;44.85;;;29.55;;
26620;SDS011;14253;44.840;10.444;2023-10-19T10:00:02;40.10;;;27.70;;
26620;SDS011;14253;44.840;10.444;2023-10-19T10:02:39;40.45;;;27.73;;
26620;SDS011;14253;44.840;10.444;2023-10-19T10:10:46;47.65;;;27.25;;
26620;SDS011;14253;44.840;10.444;2023-10-19T10:15:56;44.40;;;28.85;;
26620;SDS011;14253;44.840;10.444;2023-10-19T10:18:41;38.05;;;25.67;;
26620;SDS011;14253;44.840;10.444;2023-10-19T10:21:11;38.05;;;25.08;;
26620;SDS011;14253;44.840;10.444;2023-10-19T10:23:42;39.88;;;25.73;;
26620;SDS011;14253;44.840;10.444;2023-10-19T10:26:29;35.45;;;25.10;;
26620;SDS011;14253;44.840;10.444;2023-10-19T10:31:45;38.70;;;25.88;;
26620;SDS011;14253;44.840;10.444;2023-10-19T10:37:07;36.00;;;24.70;;
26620;SDS011;14253;44.840;10.444;2023-10-19T10:39:34;33.80;;;24.23;;
26620;SDS011;14253;44.840;10.444;2023-10-19T10:44:35;38.88;;;25.50;;
26620;SDS011;14253;44.840;10.444;2023-10-19T10:47:06;41.47;;;27.58;;
26620;SDS011;14253;44.840;10.444;2023-10-19T10:52:33;45.63;;;29.73;;
26620;SDS011;14253;44.840;10.444;2023-10-19T10:55:06;43.13;;;29.63;;
26620;SDS011;14253;44.840;10.444;2023-10-19T10:57:36;46.35;;;29.55;;
26620;SDS011;14253;44.840;10.444;2023-10-19T11:00:03;38.80;;;27.90;;
26620;SDS011;14253;44.840;10.444;2023-10-19T11:02:37;42.50;;;28.67;;
26620;SDS011;14253;44.840;10.444;2023-10-19T11:05:08;41.42;;;26.13;;
26620;SDS011;14253;44.840;10.444;2023-10-19T11:07:39;36.38;;;24.75;;
26620;SDS011;14253;44.840;10.444;2023-10-19T11:10:07;34.80;;;23.40;;
26620;SDS011;14253;44.840;10.444;2023-10-19T11:12:35;34.53;;;22.27;;
26620;SDS011;14253;44.840;10.444;2023-10-19T11:15:02;36.38;;;23.60;;
26620;SDS011;14253;44.840;10.444;2023-10-19T11:17:41;33.90;;;22.75;;
26620;SDS011;14253;44.840;10.444;2023-10-19T11:20:08;37.92;;;25.08;;
26620;SDS011;14253;44.840;10.444;2023-10-19T11:22:50;34.78;;;23.77;;
26620;SDS011;14253;44.840;10.444;2023-10-19T11:25:26;32.92;;;22.00;;
26620;SDS011;14253;44.840;10.444;2023-10-19T11:28:02;32.17;;;23.15;;
26620;SDS011;14253;44.840;10.444;2023-10-19T11:30:44;31.80;;;22.85;;
26620;SDS011;14253;44.840;10.444;2023-10-19T11:33:13;35.67;;;22.70;;
26620;SDS011;14253;44.840;10.444;2023-10-19T11:35:43;32.63;;;23.58;;
26620;SDS011;14253;44.840;10.444;2023-10-19T11:38:09;31.85;;;23.67;;
26620;SDS011;14253;44.840;10.444;2023-10-19T11:40:35;34.35;;;22.48;;
26620;SDS011;14253;44.840;10.444;2023-10-19T11:43:01;33.22;;;23.40;;
26620;SDS011;14253;44.840;10.444;2023-10-19T11:45:27;31.67;;;22.83;;
26620;SDS011;14253;44.840;10.444;2023-10-19T11:47:54;34.22;;;22.52;;
26620;SDS011;14253;44.840;10.444;2023-10-19T11:50:22;32.72;;;22.50;;
26620;SDS011;14253;44.840;10.444;2023-10-19T11:52:49;28.83;;;21.08;;
26620;SDS011;14253;44.840;10.444;2023-10-19T11:55:15;29.67;;;21.88;;
26620;SDS011;14253;44.840;10.444;2023-10-19T11:57:44;29.38;;;22.00;;
26620;SDS011;14253;44.840;10.444;2023-10-19T12:00:10;30.35;;;21.25;;
26620;SDS011;14253;44.840;10.444;2023-10-19T12:02:47;30.55;;;21.42;;
26620;SDS011;14253;44.840;10.444;2023-10-19T12:05:13;26.83;;;21.13;;
26620;SDS011;14253;44.840;10.444;2023-10-19T12:07:39;28.27;;;19.85;;
26620;SDS011;14253;44.840;10.444;2023-10-19T12:10:07;28.23;;;21.42;;
26620;SDS011;14253;44.840;10.444;2023-10-19T12:12:35;27.98;;;20.77;;
26620;SDS011;14253;44.840;10.444;2023-10-19T12:15:01;27.13;;;20.05;;
26620;SDS011;14253;44.840;10.444;2023-10-19T12:17:33;26.88;;;20.83;;
26620;SDS011;14253;44.840;10.444;2023-10-19T12:19:59;28.95;;;21.00;;
26620;SDS011;14253;44.840;10.444;2023-10-19T12:22:26;31.15;;;20.90;;
26620;SDS011;14253;44.840;10.444;2023-10-19T12:24:57;27.63;;;21.35;;
26620;SDS011;14253;44.840;10.444;2023-10-19T12:27:24;30.50;;;22.27;;
26620;SDS011;14253;44.840;10.444;2023-10-19T12:29:50;27.02;;;19.95;;
26620;SDS011;14253;44.840;10.444;2023-10-19T12:32:19;28.50;;;21.13;;
26620;SDS011;14253;44.840;10.444;2023-10-19T12:34:47;27.08;;;20.52;;
26620;SDS011;14253;44.840;10.444;2023-10-19T12:37:18;30.17;;;21.17;;
26620;SDS011;14253;44.840;10.444;2023-10-19T12:39:45;31.35;;;21.90;;
26620;SDS011;14253;44.840;10.444;2023-10-19T12:42:14;29.60;;;20.92;;
26620;SDS011;14253;44.840;10.444;2023-10-19T12:44:41;30.42;;;21.58;;
26620;SDS011;14253;44.840;10.444;2023-10-19T12:47:08;33.35;;;22.45;;
26620;SDS011;14253;44.840;10.444;2023-10-19T12:49:38;30.20;;;21.80;;
26620;SDS011;14253;44.840;10.444;2023-10-19T12:52:08;28.33;;;21.08;;
26620;SDS011;14253;44.840;10.444;2023-10-19T12:54:35;34.17;;;22.23;;
26620;SDS011;14253;44.840;10.444;2023-10-19T12:57:04;32.67;;;21.38;;
26620;SDS011;14253;44.840;10.444;2023-10-19T12:59:33;33.03;;;21.23;;
26620;SDS011;14253;44.840;10.444;2023-10-19T13:02:03;28.92;;;19.83;;
26620;SDS011;14253;44.840;10.444;2023-10-19T13:04:29;29.92;;;21.17;;
26620;SDS011;14253;44.840;10.444;2023-10-19T13:06:56;27.70;;;20.83;;
26620;SDS011;14253;44.840;10.444;2023-10-19T13:09:25;27.75;;;19.38;;
26620;SDS011;14253;44.840;10.444;2023-10-19T13:11:58;29.70;;;19.20;;
26620;SDS011;14253;44.840;10.444;2023-10-19T13:14:25;28.15;;;19.67;;
26620;SDS011;14253;44.840;10.444;2023-10-19T13:16:52;25.58;;;18.77;;
26620;SDS011;14253;44.840;10.444;2023-10-19T13:19:20;27.83;;;18.83;;
26620;SDS011;14253;44.840;10.444;2023-10-19T13:21:50;27.70;;;20.30;;
26620;SDS011;14253;44.840;10.444;2023-10-19T13:24:17;27.20;;;19.23;;
26620;SDS011;14253;44.840;10.444;2023-10-19T13:26:46;29.35;;;20.48;;
26620;SDS011;14253;44.840;10.444;2023-10-19T13:29:13;28.10;;;20.55;;
26620;SDS011;14253;44.840;10.444;2023-10-19T13:31:40;25.70;;;20.05;;
26620;SDS011;14253;44.840;10.444;2023-10-19T13:34:14;33.00;;;19.90;;
26620;SDS011;14253;44.840;10.444;2023-10-19T13:36:43;28.48;;;20.90;;
26620;SDS011;14253;44.840;10.444;2023-10-19T13:39:11;28.17;;;20.25;;
26620;SDS011;14253;44.840;10.444;2023-10-19T13:41:42;31.20;;;21.63;;
26620;SDS011;14253;44.840;10.444;2023-10-19T13:44:08;32.28;;;21.38;;
26620;SDS011;14253;44.840;10.444;2023-10-19T13:46:34;33.00;;;22.35;;
26620;SDS011;14253;44.840;10.444;2023-10-19T13:49:00;30.65;;;23.35;;
26620;SDS011;14253;44.840;10.444;2023-10-19T13:51:28;32.03;;;22.15;;
26620;SDS011;14253;44.840;10.444;2023-10-19T13:53:57;29.65;;;21.92;;
26620;SDS011;14253;44.840;10.444;2023-10-19T13:56:23;31.60;;;21.02;;
26620;SDS011;14253;44.840;10.444;2023-10-19T13:58:49;32.72;;;23.08;;
26620;SDS011;14253;44.840;10.444;2023-10-19T14:01:17;28.92;;;21.65;;
26620;SDS011;14253;44.840;10.444;2023-10-19T14:03:43;29.33;;;21.60;;
26620;SDS011;14253;44.840;10.444;2023-10-19T14:06:12;33.33;;;23.83;;
26620;SDS011;14253;44.840;10.444;2023-10-19T14:08:39;28.88;;;21.55;;
26620;SDS011;14253;44.840;10.444;2023-10-19T14:11:05;27.73;;;19.98;;
26620;SDS011;14253;44.840;10.444;2023-10-19T14:13:31;25.02;;;18.77;;
26620;SDS011;14253;44.840;10.444;2023-10-19T14:15:58;26.92;;;18.85;;
26620;SDS011;14253;44.840;10.444;2023-10-19T14:18:24;24.52;;;19.25;;
26620;SDS011;14253;44.840;10.444;2023-10-19T14:20:51;23.40;;;18.15;;
26620;SDS011;14253;44.840;10.444;2023-10-19T14:23:17;24.23;;;18.25;;
26620;SDS011;14253;44.840;10.444;2023-10-19T14:25:43;37.08;;;19.92;;
26620;SDS011;14253;44.840;10.444;2023-10-19T14:28:09;30.08;;;21.35;;
26620;SDS011;14253;44.840;10.444;2023-10-19T14:30:37;23.83;;;18.77;;
26620;SDS011;14253;44.840;10.444;2023-10-19T14:33:03;23.42;;;18.33;;
26620;SDS011;14253;44.840;10.444;2023-10-19T14:35:34;23.95;;;17.67;;
26620;SDS011;14253;44.840;10.444;2023-10-19T14:38:02;24.35;;;18.73;;
26620;SDS011;14253;44.840;10.444;2023-10-19T14:40:28;24.33;;;20.00;;
26620;SDS011;14253;44.840;10.444;2023-10-19T14:42:55;24.40;;;20.38;;
26620;SDS011;14253;44.840;10.444;2023-10-19T14:45:25;25.38;;;18.67;;
26620;SDS011;14253;44.840;10.444;2023-10-19T14:47:54;26.52;;;18.92;;
26620;SDS011;14253;44.840;10.444;2023-10-19T14:50:21;22.52;;;17.52;;
26620;SDS011;14253;44.840;10.444;2023-10-19T14:52:49;27.38;;;18.05;;
26620;SDS011;14253;44.840;10.444;2023-10-19T14:55:17;27.85;;;19.90;;
26620;SDS011;14253;44.840;10.444;2023-10-19T14:57:43;21.42;;;17.60;;
26620;SDS011;14253;44.840;10.444;2023-10-19T15:00:14;23.20;;;18.13;;
26620;SDS011;14253;44.840;10.444;2023-10-19T15:02:47;20.48;;;16.85;;
26620;SDS011;14253;44.840;10.444;2023-10-19T15:05:15;22.70;;;17.58;;
26620;SDS011;14253;44.840;10.444;2023-10-19T15:07:41;23.02;;;18.58;;
26620;SDS011;14253;44.840;10.444;2023-10-19T15:10:11;24.20;;;17.80;;